Time;durP1;ratioP1;P1;durP2;ratioP2;P2;SDS_P1;SDS_P2;PMS_P1;PMS_P2;Temp;Humidity;BMP_temperature;BMP_pressure;BME280_temperature;BME280_humidity;BME280_pressure;Samples;Min_cycle;Max_cycle;Signal;HPM_P1;HPM_P2
2023/03/07 00:01:28;;;;;;;;;28.60;27.00;;;;;6.36;47.03;97472.72;6144021;28;96334;-58
2023/03/07 00:04:32;;;;;;;;;32.40;29.80;;;;;6.25;47.24;97470.03;6137259;28;96693;-58
2023/03/07 00:07:35;;;;;;;;;32.50;30.50;;;;;6.25;47.16;97470.84;6143682;28;97507;-58
2023/03/07 00:10:39;;;;;;;;;29.25;27.25;;;;;6.23;47.35;97475.59;6160744;28;96452;-58
2023/03/07 00:13:44;;;;;;;;;33.50;30.50;;;;;6.28;47.28;97473.06;6162591;28;96206;-58
2023/03/07 00:16:50;;;;;;;;;32.67;29.00;;;;;6.29;47.15;97463.16;6161029;28;96614;-59
2023/03/07 00:19:53;;;;;;;;;35.50;30.50;;;;;6.37;47.30;97468.19;6145833;28;97508;-58
2023/03/07 00:22:56;;;;;;;;;31.00;29.00;;;;;6.40;47.30;97470.41;6162835;28;96874;-58
2023/03/07 00:26:02;;;;;;;;;28.00;27.00;;;;;6.39;47.45;97466.91;6153228;28;98358;-58
2023/03/07 00:29:08;;;;;;;;;35.60;30.00;;;;;6.41;47.35;97459.47;6144587;28;96415;-58
2023/03/07 00:32:11;;;;;;;;;41.00;33.25;;;;;6.42;47.12;97465.63;6137258;28;96186;-58
2023/03/07 00:35:15;;;;;;;;;33.60;31.00;;;;;6.40;47.49;97467.75;6139307;28;96549;-58
2023/03/07 00:38:18;;;;;;;;;35.80;30.80;;;;;6.40;47.31;97460.50;6143981;28;98364;-58
2023/03/07 00:41:24;;;;;;;;;38.60;33.60;;;;;6.40;47.42;97459.72;6157503;28;96418;-58
2023/03/07 00:44:29;;;;;;;;;35.60;32.00;;;;;6.37;47.44;97452.13;6154328;28;96590;-58
2023/03/07 00:47:33;;;;;;;;;34.20;30.20;;;;;6.39;47.38;97453.53;6158999;28;96267;-57
2023/03/07 00:50:36;;;;;;;;;32.80;31.40;;;;;6.41;47.36;97442.56;6127620;28;97132;-58
2023/03/07 00:53:40;;;;;;;;;30.20;27.20;;;;;6.50;47.13;97446.53;6136505;28;96423;-58
2023/03/07 00:56:44;;;;;;;;;33.00;29.00;;;;;6.53;47.18;97443.44;6155172;28;96367;-58
2023/03/07 00:59:48;;;;;;;;;30.60;25.00;;;;;6.57;46.93;97438.41;6155702;28;96768;-59
2023/03/07 01:02:52;;;;;;;;;34.50;29.00;;;;;6.50;47.15;97430.47;6153564;28;96315;-58
2023/03/07 01:05:58;;;;;;;;;29.60;27.40;;;;;6.47;46.96;97409.53;6160920;28;96471;-58
2023/03/07 01:09:06;;;;;;;;;31.40;26.40;;;;;6.61;46.83;97434.22;6149785;28;96370;-58
2023/03/07 01:12:09;;;;;;;;;32.00;30.00;;;;;6.59;47.02;97425.63;6139124;28;96500;-58
2023/03/07 01:15:14;;;;;;;;;32.00;28.50;;;;;6.61;46.97;97428.88;6134171;28;97966;-58
2023/03/07 01:18:18;;;;;;;;;28.00;25.00;;;;;6.67;46.77;97415.38;6139073;28;96636;-58
2023/03/07 01:21:23;;;;;;;;;24.40;23.40;;;;;6.70;46.70;97424.78;6131154;28;96369;-57
2023/03/07 01:24:26;;;;;;;;;27.75;23.25;;;;;6.78;46.55;97429.81;6132182;28;96648;-58
2023/03/07 01:27:30;;;;;;;;;25.60;23.60;;;;;6.75;46.72;97420.38;6155051;28;96726;-58
2023/03/07 01:30:35;;;;;;;;;30.40;29.00;;;;;6.76;46.82;97426.56;6154051;28;96287;-58
2023/03/07 01:33:38;;;;;;;;;25.80;23.60;;;;;6.86;46.38;97419.56;6121300;28;96582;-58
2023/03/07 01:36:42;;;;;;;;;26.00;24.00;;;;;6.92;46.35;97410.59;6147284;28;96480;-58
2023/03/07 01:39:46;;;;;;;;;28.50;25.50;;;;;7.03;46.14;97400.09;6141903;28;98404;-58
2023/03/07 01:42:53;;;;;;;;;29.00;27.00;;;;;7.09;46.02;97399.97;6129534;28;98513;-58
2023/03/07 01:46:41;;;;;;;;;29.00;25.80;;;;;7.16;45.80;97392.63;6146189;28;96317;-58
2023/03/07 01:49:45;;;;;;;;;28.00;25.40;;;;;7.24;45.83;97400.28;6112003;28;98548;-58
2023/03/07 01:52:53;;;;;;;;;29.80;26.20;;;;;7.24;45.88;97396.78;6139505;28;96365;-58
2023/03/07 01:55:56;;;;;;;;;31.40;30.00;;;;;7.23;45.87;97404.00;6155043;28;97241;-58
2023/03/07 01:59:00;;;;;;;;;32.00;29.00;;;;;7.14;45.97;97394.72;6147458;28;96394;-58
2023/03/07 02:02:10;;;;;;;;;27.20;25.80;;;;;7.06;46.30;97392.41;6150760;28;96189;-58
2023/03/07 02:05:19;;;;;;;;;35.00;31.00;;;;;6.95;46.44;97399.41;6142492;28;96294;-58
2023/03/07 02:08:27;;;;;;;;;33.25;30.00;;;;;6.98;46.33;97400.81;6145933;28;96315;-58
2023/03/07 02:11:31;;;;;;;;;33.50;30.00;;;;;6.90;46.54;97396.63;6124646;28;97719;-58
2023/03/07 02:14:34;;;;;;;;;31.00;30.00;;;;;6.95;46.23;97393.22;6139609;28;96393;-58
2023/03/07 02:17:40;;;;;;;;;32.50;27.50;;;;;6.95;46.36;97386.00;6140653;28;96356;-58
2023/03/07 02:20:54;;;;;;;;;33.20;30.00;;;;;7.01;46.30;97391.47;6142196;28;96351;-58
2023/03/07 02:24:03;;;;;;;;;28.60;25.80;;;;;6.97;46.35;97400.00;6138746;28;96461;-57
2023/03/07 02:27:08;;;;;;;;;27.00;24.00;;;;;7.00;46.00;97390.66;6144905;28;96485;-58
2023/03/07 02:30:13;;;;;;;;;26.60;25.00;;;;;7.03;46.06;97395.56;6138254;28;96323;-58
2023/03/07 02:33:16;;;;;;;;;29.00;25.00;;;;;7.08;46.05;97394.88;6124044;28;96774;-58
2023/03/07 02:36:23;;;;;;;;;25.00;24.00;;;;;7.03;46.20;97379.50;6146129;28;97461;-58
2023/03/07 02:39:49;;;;;;;;;25.60;22.60;;;;;7.12;46.20;97399.50;6113979;28;98334;-58
2023/03/07 02:42:56;;;;;;;;;25.20;23.40;;;;;7.21;45.95;97390.03;6146652;28;96319;-58
2023/03/07 02:46:00;;;;;;;;;30.00;26.00;;;;;7.25;46.04;97390.38;6145426;28;97531;-58
2023/03/07 02:49:04;;;;;;;;;29.60;25.60;;;;;7.27;46.03;97389.09;6155936;28;96385;-58
2023/03/07 02:52:09;;;;;;;;;26.75;24.25;;;;;7.34;45.73;97389.78;6131794;28;97066;-58
2023/03/07 02:55:12;;;;;;;;;31.00;28.00;;;;;7.40;45.64;97388.84;6163317;28;97838;-58
2023/03/07 02:58:23;;;;;;;;;25.00;24.00;;;;;7.46;45.57;97391.63;6122241;28;98524;-58
2023/03/07 03:01:27;;;;;;;;;34.80;31.00;;;;;7.45;45.54;97390.78;6140364;28;96457;-57
2023/03/07 03:04:30;;;;;;;;;25.20;23.80;;;;;7.47;45.52;97391.38;6139493;28;96863;-58
2023/03/07 03:07:34;;;;;;;;;27.00;25.00;;;;;7.47;45.43;97390.56;6145853;28;96580;-58
2023/03/07 03:10:38;;;;;;;;;32.50;28.00;;;;;7.45;45.58;97388.13;6142359;28;97418;-58
2023/03/07 03:13:43;;;;;;;;;25.20;22.80;;;;;7.52;45.27;97388.81;6161797;28;96356;-58
2023/03/07 03:16:47;;;;;;;;;26.00;23.40;;;;;7.50;45.42;97385.53;6145566;28;96316;-58
2023/03/07 03:19:50;;;;;;;;;25.20;22.20;;;;;7.49;45.49;97389.25;6138233;28;96387;-58
2023/03/07 03:22:54;;;;;;;;;25.75;22.75;;;;;7.39;45.72;97389.06;6121149;28;98363;-58
2023/03/07 03:25:59;;;;;;;;;26.00;24.00;;;;;7.38;45.65;97387.44;6145357;28;96850;-57
2023/03/07 03:29:06;;;;;;;;;24.20;23.00;;;;;7.27;45.84;97388.28;6126748;28;97416;-58
2023/03/07 03:32:10;;;;;;;;;28.00;24.40;;;;;7.22;45.91;97389.00;6136336;28;96858;-58
2023/03/07 03:35:14;;;;;;;;;25.40;22.60;;;;;7.16;46.29;97373.03;6139670;28;96974;-57
2023/03/07 03:38:18;;;;;;;;;28.00;25.00;;;;;7.19;46.00;97380.59;6136973;28;96571;-58
2023/03/07 03:41:22;;;;;;;;;29.00;27.00;;;;;7.18;46.16;97384.34;6137715;28;96554;-58
2023/03/07 03:44:26;;;;;;;;;26.00;22.00;;;;;7.13;46.31;97392.28;6143523;28;96272;-58
2023/03/07 03:47:31;;;;;;;;;25.80;24.80;;;;;7.17;46.12;97390.75;6144866;28;96387;-58
2023/03/07 03:50:34;;;;;;;;;25.80;23.80;;;;;7.09;46.23;97381.19;6145432;28;96855;-57
2023/03/07 03:53:39;;;;;;;;;30.25;24.00;;;;;7.14;46.35;97388.53;6144543;28;97977;-58
2023/03/07 03:56:42;;;;;;;;;27.00;24.40;;;;;7.14;46.11;97389.34;6162207;28;96734;-58
2023/03/07 03:59:47;;;;;;;;;27.00;25.60;;;;;7.16;46.26;97383.75;6129190;28;96495;-57
2023/03/07 04:02:52;;;;;;;;;27.75;24.00;;;;;7.19;46.22;97394.81;6143209;28;96452;-58
2023/03/07 04:06:01;;;;;;;;;28.60;24.60;;;;;7.18;46.60;97398.56;6144673;28;97978;-58
2023/03/07 04:09:05;;;;;;;;;33.40;27.40;;;;;7.19;46.04;97394.00;6145182;28;96431;-58
2023/03/07 04:12:11;;;;;;;;;27.40;26.20;;;;;7.20;46.19;97393.78;6144774;28;96362;-58
2023/03/07 04:15:16;;;;;;;;;27.00;25.00;;;;;7.14;46.24;97396.56;6162126;28;96330;-58
2023/03/07 04:18:19;;;;;;;;;20.20;19.20;;;;;7.16;45.93;97389.94;6155771;28;96741;-58
2023/03/07 04:21:24;;;;;;;;;28.40;24.40;;;;;7.14;46.19;97385.84;6144062;28;96324;-58
2023/03/07 04:24:30;;;;;;;;;28.25;27.25;;;;;7.20;46.16;97393.78;6145168;28;96317;-58
2023/03/07 04:27:34;;;;;;;;;27.00;25.50;;;;;7.16;46.13;97391.81;6162313;28;96201;-58
2023/03/07 04:30:39;;;;;;;;;28.00;25.80;;;;;7.20;46.25;97392.97;6127127;28;96226;-58
2023/03/07 04:33:43;;;;;;;;;31.20;26.00;;;;;7.25;46.33;97398.41;6140657;28;96283;-58
2023/03/07 04:36:47;;;;;;;;;25.00;24.00;;;;;7.31;46.31;97392.94;6127607;28;99715;-58
2023/03/07 04:39:50;;;;;;;;;28.60;26.60;;;;;7.33;46.00;97390.03;6144598;28;96358;-59
2023/03/07 04:42:54;;;;;;;;;27.50;26.00;;;;;7.29;45.96;97370.91;6142851;28;96573;-58
2023/03/07 04:45:59;;;;;;;;;22.00;21.00;;;;;7.37;46.11;97389.31;6160078;28;96978;-58
2023/03/07 04:49:03;;;;;;;;;24.50;23.00;;;;;7.38;46.00;97388.25;6144088;28;96478;-58
2023/03/07 04:52:07;;;;;;;;;23.00;21.20;;;;;7.36;46.16;97370.78;6156499;28;96498;-58
2023/03/07 04:55:11;;;;;;;;;25.20;24.60;;;;;7.47;45.98;97391.38;6144127;28;96906;-58
2023/03/07 04:58:15;;;;;;;;;27.00;24.40;;;;;7.48;45.93;97389.53;6149037;28;96899;-58
2023/03/07 05:01:20;;;;;;;;;30.40;26.40;;;;;7.47;45.79;97391.38;6145705;28;100278;-58
2023/03/07 05:04:24;;;;;;;;;25.80;23.80;;;;;7.53;45.87;97395.78;6147090;28;96678;-58
2023/03/07 05:07:28;;;;;;;;;24.60;23.60;;;;;7.54;45.86;97394.72;6148742;28;96009;-58
2023/03/07 05:10:32;;;;;;;;;26.00;24.00;;;;;7.57;45.73;97385.41;6148105;28;96239;-58
2023/03/07 05:13:38;;;;;;;;;28.00;24.25;;;;;7.53;45.72;97384.22;6147393;28;96281;-59
2023/03/07 05:16:43;;;;;;;;;22.75;21.00;;;;;7.58;45.52;97384.31;6163280;28;97554;-58
2023/03/07 05:19:46;;;;;;;;;23.00;21.00;;;;;7.61;45.41;97390.06;6147178;28;96243;-58
2023/03/07 05:22:50;;;;;;;;;24.00;22.00;;;;;7.60;45.24;97376.88;6161783;28;96683;-58
2023/03/07 05:25:54;;;;;;;;;30.80;28.00;;;;;7.63;45.27;97387.94;6129264;28;98384;-58
2023/03/07 05:28:59;;;;;;;;;29.00;25.40;;;;;7.60;44.95;97379.56;6157840;28;97055;-58
2023/03/07 05:32:05;;;;;;;;;26.00;24.80;;;;;7.69;45.11;97389.66;6145767;28;97243;-59
2023/03/07 05:35:11;;;;;;;;;27.00;25.00;;;;;7.67;45.17;97389.06;6125129;28;96327;-58
2023/03/07 05:38:16;;;;;;;;;26.00;22.80;;;;;7.67;45.20;97385.59;6129044;28;98343;-58
2023/03/07 05:41:19;;;;;;;;;25.40;24.20;;;;;7.64;45.20;97383.38;6139953;28;96764;-58
2023/03/07 05:44:22;;;;;;;;;27.20;24.80;;;;;7.63;45.27;97382.56;6145485;28;97234;-59
2023/03/07 05:47:27;;;;;;;;;26.50;24.50;;;;;7.67;45.25;97386.38;6142804;28;96644;-58
2023/03/07 05:50:31;;;;;;;;;26.75;23.75;;;;;7.70;45.16;97383.25;6145095;28;97120;-58
2023/03/07 05:53:35;;;;;;;;;23.00;22.40;;;;;7.83;44.82;97390.16;6163697;28;96729;-59
2023/03/07 05:56:38;;;;;;;;;28.80;26.00;;;;;7.89;44.83;97391.09;6142667;28;96623;-58
2023/03/07 05:59:42;;;;;;;;;26.50;24.00;;;;;7.86;44.91;97386.22;6143460;28;96496;-57
2023/03/07 06:02:47;;;;;;;;;24.00;23.00;;;;;7.89;44.76;97375.81;6120136;28;97191;-58
2023/03/07 06:05:51;;;;;;;;;26.40;24.40;;;;;8.02;44.64;97388.91;6161968;28;96858;-58
2023/03/07 06:08:55;;;;;;;;;22.80;20.00;;;;;8.11;44.24;97389.34;6162208;28;96486;-57
2023/03/07 06:11:59;;;;;;;;;25.50;24.00;;;;;8.09;44.31;97389.59;6133298;28;98683;-58
2023/03/07 06:15:02;;;;;;;;;24.50;23.50;;;;;8.23;44.11;97387.41;6138779;28;96983;-59
2023/03/07 06:18:13;;;;;;;;;32.80;28.80;;;;;8.23;43.93;97393.56;6144718;28;97506;-58
2023/03/07 06:21:19;;;;;;;;;24.00;22.60;;;;;8.31;43.78;97389.69;6133453;28;96986;-58
2023/03/07 06:24:22;;;;;;;;;26.40;22.00;;;;;8.49;43.61;97385.97;6157257;28;97656;-58
2023/03/07 06:27:26;;;;;;;;;24.00;23.00;;;;;8.57;43.39;97382.88;6145618;28;96497;-58
2023/03/07 06:30:30;;;;;;;;;26.60;22.40;;;;;8.51;43.13;97368.53;6142085;28;97403;-58
2023/03/07 06:33:35;;;;;;;;;23.20;22.20;;;;;8.80;42.61;97389.91;6150371;28;96338;-58
2023/03/07 06:36:39;;;;;;;;;24.00;21.00;;;;;9.01;42.49;97400.72;6139233;28;96655;-58
2023/03/07 06:39:43;;;;;;;;;21.00;20.00;;;;;9.18;42.24;97386.44;6140032;28;96663;-58
2023/03/07 06:42:47;;;;;;;;;27.00;23.25;;;;;9.39;41.64;97391.81;6124808;28;98474;-58
2023/03/07 06:45:51;;;;;;;;;22.00;20.00;;;;;9.64;41.09;97390.47;6143321;28;97566;-58
2023/03/07 06:48:58;;;;;;;;;24.00;22.50;;;;;9.95;40.45;97393.25;6161025;28;96333;-58
2023/03/07 06:52:01;;;;;;;;;22.40;20.00;;;;;10.24;39.81;97393.00;6146266;28;96404;-58
2023/03/07 06:55:06;;;;;;;;;21.50;20.50;;;;;10.59;38.98;97398.72;6163628;28;96232;-58
2023/03/07 06:58:10;;;;;;;;;26.00;24.00;;;;;10.95;38.05;97398.94;6139809;28;96321;-58
2023/03/07 07:01:17;;;;;;;;;27.00;26.25;;;;;11.52;37.05;97396.28;6118342;28;96458;-58
2023/03/07 07:04:25;;;;;;;;;30.60;28.00;;;;;12.37;35.96;97392.19;6127638;28;97052;-58
2023/03/07 07:07:29;;;;;;;;;23.80;21.00;;;;;12.63;34.66;97372.19;6161835;28;97583;-58
2023/03/07 07:10:34;;;;;;;;;24.00;20.75;;;;;12.88;34.20;97395.69;6145380;28;96626;-58
2023/03/07 07:13:40;;;;;;;;;24.50;23.00;;;;;13.20;33.63;97392.69;6144771;28;96274;-58
2023/03/07 07:16:45;;;;;;;;;22.60;20.40;;;;;13.77;32.78;97387.63;6142168;28;96422;-58
2023/03/07 07:19:50;;;;;;;;;23.00;20.00;;;;;14.54;31.68;97383.34;6144111;28;97712;-58
2023/03/07 07:22:54;;;;;;;;;23.00;21.00;;;;;15.76;29.62;97380.19;6113211;28;98532;-59
2023/03/07 07:25:57;;;;;;;;;22.40;19.40;;;;;17.76;27.18;97386.41;6152745;28;96593;-59
2023/03/07 07:29:01;;;;;;;;;21.60;19.40;;;;;19.21;25.27;97387.91;6137909;28;96386;-59
2023/03/07 07:32:05;;;;;;;;;19.25;16.00;;;;;20.15;23.40;97377.31;6137492;28;96599;-59
2023/03/07 07:35:10;;;;;;;;;20.00;18.00;;;;;21.02;22.85;97378.09;6130672;28;96327;-59
2023/03/07 07:38:14;;;;;;;;;22.60;20.60;;;;;21.84;21.79;97377.69;6131505;28;96544;-59
2023/03/07 07:41:18;;;;;;;;;19.80;17.80;;;;;22.38;20.74;97370.38;6114594;28;97683;-59
2023/03/07 07:44:22;;;;;;;;;21.00;17.00;;;;;22.55;20.66;97374.94;6137576;28;96453;-59
2023/03/07 07:47:33;;;;;;;;;18.00;17.75;;;;;22.13;20.94;97374.16;6133922;28;97254;-59
2023/03/07 07:50:38;;;;;;;;;17.25;16.75;;;;;22.08;20.79;97379.03;6143505;28;96570;-59
2023/03/07 07:53:41;;;;;;;;;19.00;17.00;;;;;22.25;20.67;97376.16;6141604;28;97017;-59
2023/03/07 07:56:45;;;;;;;;;17.20;15.60;;;;;22.43;20.15;97372.94;6159567;28;96649;-59
2023/03/07 07:59:49;;;;;;;;;18.40;18.40;;;;;22.24;19.60;97380.84;6157952;28;96538;-59
2023/03/07 08:02:52;;;;;;;;;16.80;15.00;;;;;22.29;20.08;97374.34;6141767;28;96455;-59
2023/03/07 08:05:57;;;;;;;;;21.40;20.40;;;;;22.15;19.91;97374.59;6159343;28;97157;-59
2023/03/07 08:09:00;;;;;;;;;17.50;16.00;;;;;22.26;20.30;97370.34;6173969;28;96346;-59
2023/03/07 08:12:04;;;;;;;;;20.00;18.00;;;;;22.06;19.76;97365.63;6184315;28;96384;-60
2023/03/07 08:15:08;;;;;;;;;17.00;15.25;;;;;21.99;19.93;97363.41;6176011;28;96408;-60
2023/03/07 08:18:12;;;;;;;;;17.60;16.00;;;;;21.62;19.91;97358.75;6192142;28;96331;-61
2023/03/07 08:21:17;;;;;;;;;20.40;17.60;;;;;21.03;20.46;97371.50;6189743;28;96549;-60
2023/03/07 08:24:21;;;;;;;;;16.33;15.00;;;;;20.93;21.07;97363.63;6157734;28;98588;-61
2023/03/07 08:27:41;;;;;;;;;19.75;19.00;;;;;20.44;21.61;97365.78;6174229;28;96320;-61
2023/03/07 08:30:45;;;;;;;;;18.00;17.00;;;;;20.66;21.36;97351.94;6186490;28;96262;-60
2023/03/07 08:33:49;;;;;;;;;21.40;17.40;;;;;20.72;21.54;97355.31;6184757;28;96453;-60
2023/03/07 08:36:59;;;;;;;;;18.80;17.00;;;;;20.87;20.97;97353.97;6191265;28;96319;-62
2023/03/07 08:40:03;;;;;;;;;20.00;17.40;;;;;20.52;21.29;97358.72;6173997;28;99327;-62
2023/03/07 08:43:06;;;;;;;;;19.50;16.50;;;;;20.72;21.52;97347.09;6192130;28;96280;-61
2023/03/07 08:46:09;;;;;;;;;20.20;17.00;;;;;20.48;21.45;97335.81;6186452;28;97804;-60
2023/03/07 08:49:13;;;;;;;;;17.00;15.00;;;;;20.21;21.28;97350.63;6181284;28;96290;-60
2023/03/07 08:52:18;;;;;;;;;22.00;18.40;;;;;19.98;21.70;97351.88;6153052;28;96632;-60
2023/03/07 08:55:21;;;;;;;;;16.80;14.60;;;;;19.42;21.56;97353.47;6189308;28;96158;-61
2023/03/07 08:58:24;;;;;;;;;15.00;14.00;;;;;18.54;22.57;97353.31;6171879;28;96087;-61
2023/03/07 09:01:28;;;;;;;;;17.60;16.00;;;;;17.58;23.40;97340.97;6171777;28;96349;-60
2023/03/07 09:04:31;;;;;;;;;15.60;14.00;;;;;17.04;24.59;97348.03;6189491;28;96146;-61
2023/03/07 09:07:36;;;;;;;;;18.00;14.75;;;;;16.52;25.04;97340.22;6152351;28;96539;-61
2023/03/07 09:10:39;;;;;;;;;18.00;16.00;;;;;16.05;26.14;97361.06;6187869;28;96285;-60
2023/03/07 09:13:43;;;;;;;;;17.60;14.40;;;;;15.97;26.06;97348.13;6183660;28;96283;-61
2023/03/07 09:16:54;;;;;;;;;14.00;13.50;;;;;15.77;25.94;97351.94;6185198;28;96363;-60
2023/03/07 09:19:58;;;;;;;;;17.40;15.00;;;;;15.77;25.88;97335.63;6187599;28;96725;-60
2023/03/07 09:23:03;;;;;;;;;15.40;14.00;;;;;15.78;26.01;97344.59;6189725;28;97010;-61
2023/03/07 09:26:06;;;;;;;;;16.50;15.50;;;;;15.84;25.99;97336.06;6190751;28;96477;-60
2023/03/07 09:29:09;;;;;;;;;16.50;14.50;;;;;15.63;26.68;97332.03;6203129;28;96434;-61
2023/03/07 09:32:13;;;;;;;;;14.40;13.40;;;;;15.31;26.28;97337.25;6180212;28;96676;-60
2023/03/07 09:35:16;;;;;;;;;15.00;14.00;;;;;15.18;26.72;97325.22;6170743;28;96224;-61
2023/03/07 09:38:21;;;;;;;;;10.60;10.00;;;;;14.82;26.56;97341.06;6165301;28;96277;-60
2023/03/07 09:42:04;;;;;;;;;11.25;11.25;;;;;14.51;27.09;97326.16;6171187;28;96135;-60
2023/03/07 09:45:26;;;;;;;;;16.25;15.00;;;;;14.09;27.53;97324.81;6167618;28;98446;-60
2023/03/07 09:48:58;;;;;;;;;13.00;11.60;;;;;14.17;27.83;97320.72;6177680;28;97032;-59
2023/03/07 09:52:02;;;;;;;;;15.00;13.20;;;;;13.89;27.93;97320.34;6190535;28;96397;-59
2023/03/07 09:55:13;;;;;;;;;15.00;11.60;;;;;14.05;27.78;97306.72;6173476;28;98390;-60
2023/03/07 09:58:21;;;;;;;;;10.60;10.00;;;;;14.63;27.43;97302.19;6187263;28;96591;-59
2023/03/07 10:01:29;;;;;;;;;14.80;13.20;;;;;14.72;26.99;97314.00;6169312;28;96275;-61
2023/03/07 10:04:42;;;;;;;;;14.80;13.00;;;;;14.58;27.20;97302.22;6173185;28;96296;-61
2023/03/07 10:07:45;;;;;;;;;11.25;10.25;;;;;14.49;27.59;97309.38;6179683;28;96278;-61
2023/03/07 10:10:59;;;;;;;;;16.00;14.00;;;;;14.17;27.69;97307.97;6189299;28;96694;-60
2023/03/07 10:14:15;;;;;;;;;14.00;13.00;;;;;14.34;28.11;97315.69;6175997;28;96932;-61
2023/03/07 10:17:29;;;;;;;;;15.00;13.00;;;;;14.37;27.89;97304.31;6159632;28;97132;-61
2023/03/07 10:20:45;;;;;;;;;13.80;12.00;;;;;13.98;28.25;97296.19;6185076;28;96677;-61
2023/03/07 10:24:18;;;;;;;;;16.00;13.00;;;;;13.94;28.13;97318.69;6169519;28;96427;-59
2023/03/07 10:27:29;;;;;;;;;14.60;13.60;;;;;13.97;28.20;97297.28;6165708;28;97256;-60
2023/03/07 10:30:32;;;;;;;;;18.00;14.00;;;;;14.07;28.14;97299.13;6189335;28;96700;-60
2023/03/07 10:33:40;;;;;;;;;15.00;14.00;;;;;14.45;27.86;97290.16;6166641;28;98365;-59
2023/03/07 10:36:46;;;;;;;;;14.50;13.00;;;;;14.08;28.02;97295.28;6169233;28;96285;-61
2023/03/07 10:39:55;;;;;;;;;13.50;11.25;;;;;14.02;27.87;97283.72;6169763;28;96796;-60
2023/03/07 10:43:01;;;;;;;;;12.80;11.80;;;;;13.76;28.31;97280.38;6171578;28;97080;-59
2023/03/07 10:46:12;;;;;;;;;12.00;11.00;;;;;13.71;28.43;97271.47;6175681;28;96397;-60
2023/03/07 10:49:33;;;;;;;;;13.25;12.25;;;;;13.12;28.82;97255.28;6157821;28;98409;-59
2023/03/07 10:52:40;;;;;;;;;15.00;14.00;;;;;12.81;29.44;97257.25;6193558;28;96273;-60
2023/03/07 10:55:45;;;;;;;;;12.40;11.40;;;;;12.37;29.73;97257.88;6189354;28;96768;-60
2023/03/07 10:59:05;;;;;;;;;13.40;12.00;;;;;12.10;30.34;97255.50;6169440;28;96344;-59
2023/03/07 11:02:31;;;;;;;;;10.25;9.25;;;;;12.03;30.37;97249.53;6187367;28;96275;-60
2023/03/07 11:05:35;;;;;;;;;14.25;13.25;;;;;11.81;30.17;97235.50;6176953;28;96259;-60
2023/03/07 11:08:38;;;;;;;;;11.00;10.00;;;;;11.72;30.88;97242.50;6192429;28;96685;-60
2023/03/07 11:11:48;;;;;;;;;11.00;10.00;;;;;11.82;31.06;97231.75;6164138;28;96576;-58
2023/03/07 11:14:54;;;;;;;;;14.00;12.00;;;;;11.87;30.55;97236.31;6160942;28;96311;-58
2023/03/07 11:17:58;;;;;;;;;13.80;11.80;;;;;11.71;31.00;97238.16;6146900;28;96145;-58
2023/03/07 11:21:01;;;;;;;;;10.20;10.20;;;;;11.70;31.14;97226.56;6163467;28;97532;-58
2023/03/07 11:24:16;;;;;;;;;16.00;14.00;;;;;11.69;31.40;97232.22;6163015;28;96462;-58
2023/03/07 11:27:23;;;;;;;;;13.40;13.00;;;;;11.70;31.45;97225.75;6146985;28;97405;-58
2023/03/07 11:30:34;;;;;;;;;13.75;11.00;;;;;11.70;31.58;97225.75;6133709;28;97257;-58
2023/03/07 11:33:50;;;;;;;;;15.00;13.20;;;;;11.67;31.83;97220.91;6134971;28;97117;-59
2023/03/07 11:37:14;;;;;;;;;14.60;11.60;;;;;12.15;31.28;97220.38;6160346;28;96547;-58
2023/03/07 11:40:31;;;;;;;;;16.00;13.00;;;;;12.55;30.92;97213.28;6144565;28;98108;-58
2023/03/07 11:43:58;;;;;;;;;14.00;12.60;;;;;12.64;30.85;97210.81;6150004;28;96525;-58
2023/03/07 11:47:21;;;;;;;;;13.25;12.25;;;;;12.57;30.52;97206.50;6136804;28;98363;-58
2023/03/07 11:50:28;;;;;;;;;15.00;14.20;;;;;12.82;30.39;97207.50;6130214;28;96294;-58
2023/03/07 11:53:44;;;;;;;;;14.40;12.40;;;;;12.72;30.19;97194.00;6119332;28;97322;-58
2023/03/07 11:56:52;;;;;;;;;14.40;14.00;;;;;12.79;30.27;97206.16;6110497;28;98201;-58
2023/03/07 12:00:26;;;;;;;;;14.25;13.00;;;;;12.48;30.93;97189.22;6113498;28;96403;-58
2023/03/07 12:03:48;;;;;;;;;16.60;15.60;;;;;12.66;30.80;97187.03;6107037;28;97176;-58
2023/03/07 12:07:03;;;;;;;;;15.00;14.00;;;;;12.72;30.24;97192.09;6136687;28;96864;-58
2023/03/07 12:10:21;;;;;;;;;14.00;12.60;;;;;12.83;30.18;97193.69;6125525;28;96484;-59
2023/03/07 12:13:38;;;;;;;;;12.20;10.20;;;;;12.74;30.00;97202.66;6118193;28;97833;-58
2023/03/07 12:16:52;;;;;;;;;15.40;14.40;;;;;12.64;30.45;97184.59;6120573;28;96861;-58
2023/03/07 12:20:20;;;;;;;;;16.25;15.25;;;;;13.14;30.28;97182.75;6135248;28;96412;-58
2023/03/07 12:23:32;;;;;;;;;16.00;15.00;;;;;13.52;29.44;97195.50;6112653;28;96636;-58
2023/03/07 12:26:46;;;;;;;;;14.00;12.25;;;;;13.76;28.79;97209.13;6126664;28;96424;-58
2023/03/07 12:29:54;;;;;;;;;14.20;12.00;;;;;13.80;29.00;97177.69;6132625;28;97350;-59
2023/03/07 12:32:58;;;;;;;;;15.40;15.00;;;;;13.73;28.88;97194.25;6135012;28;96743;-58
2023/03/07 12:36:08;;;;;;;;;14.00;13.00;;;;;13.66;28.90;97193.78;6134256;28;96393;-59
2023/03/07 12:39:19;;;;;;;;;15.00;14.00;;;;;13.69;29.73;97193.19;6134825;28;96912;-59
2023/03/07 12:42:32;;;;;;;;;15.60;14.60;;;;;13.53;29.53;97182.78;6135813;28;96822;-58
2023/03/07 12:45:43;;;;;;;;;16.20;15.20;;;;;13.64;29.41;97184.31;6151495;28;96267;-58
2023/03/07 12:48:53;;;;;;;;;18.00;16.60;;;;;13.50;29.78;97183.31;6158780;28;96592;-58
2023/03/07 12:52:01;;;;;;;;;19.00;17.00;;;;;13.76;29.48;97185.56;6164738;28;96161;-58
2023/03/07 12:55:16;;;;;;;;;15.50;14.00;;;;;13.65;29.73;97178.63;6160550;28;96399;-59
2023/03/07 12:58:34;;;;;;;;;16.00;14.60;;;;;13.36;29.68;97185.88;6139675;28;96852;-58
2023/03/07 13:01:41;;;;;;;;;18.25;15.50;;;;;13.22;30.47;97203.81;6154090;28;98371;-58
2023/03/07 13:04:44;;;;;;;;;11.80;11.00;;;;;13.15;30.42;97179.75;6160695;28;96407;-58
2023/03/07 13:07:50;;;;;;;;;19.20;16.20;;;;;13.01;30.76;97178.72;6158175;28;96790;-58
2023/03/07 13:10:53;;;;;;;;;20.00;17.00;;;;;13.09;30.78;97180.06;6135107;28;96593;-58
2023/03/07 13:13:58;;;;;;;;;18.00;17.60;;;;;13.34;30.68;97169.13;6161115;28;96471;-58
2023/03/07 13:17:01;;;;;;;;;15.20;14.00;;;;;13.29;30.59;97164.50;6164243;28;97019;-58
2023/03/07 13:20:36;;;;;;;;;17.00;16.40;;;;;13.34;30.55;97169.91;6162916;28;96273;-58
2023/03/07 13:23:41;;;;;;;;;17.00;16.00;;;;;13.26;30.56;97173.22;6163472;28;96591;-58
2023/03/07 13:26:45;;;;;;;;;16.00;16.00;;;;;13.33;30.51;97170.19;6163595;28;96721;-58
2023/03/07 13:30:18;;;;;;;;;19.00;17.00;;;;;13.12;30.60;97160.59;6158555;28;96315;-59
2023/03/07 13:33:28;;;;;;;;;16.80;15.80;;;;;12.94;30.65;97165.53;6162491;28;96469;-58
2023/03/07 13:36:34;;;;;;;;;20.00;19.00;;;;;12.75;31.30;97152.91;6161415;28;96217;-58
2023/03/07 13:39:39;;;;;;;;;21.60;20.60;;;;;12.67;31.47;97124.53;6163456;28;96298;-58
2023/03/07 13:42:47;;;;;;;;;18.40;17.00;;;;;13.12;30.99;97138.94;6144733;28;97171;-58
2023/03/07 13:45:52;;;;;;;;;20.00;17.75;;;;;13.12;31.48;97149.75;6161986;28;96251;-58
2023/03/07 13:49:01;;;;;;;;;19.00;18.00;;;;;12.93;31.61;97134.16;6147504;28;96467;-58
2023/03/07 13:52:39;;;;;;;;;19.00;18.60;;;;;12.76;31.75;97133.69;6163797;28;96296;-58
2023/03/07 13:55:46;;;;;;;;;20.00;16.60;;;;;12.76;31.74;97130.97;6159165;28;96795;-58
2023/03/07 13:58:55;;;;;;;;;17.00;15.75;;;;;12.74;31.35;97127.75;6157221;28;96314;-59
2023/03/07 14:02:03;;;;;;;;;14.40;14.40;;;;;12.73;31.75;97131.56;6147053;28;97232;-59
2023/03/07 14:05:06;;;;;;;;;17.60;15.60;;;;;12.58;31.62;97124.31;6156950;28;96217;-59
2023/03/07 14:08:14;;;;;;;;;16.00;14.00;;;;;12.47;31.65;97127.34;6162721;28;97175;-58
2023/03/07 14:11:23;;;;;;;;;20.40;18.00;;;;;12.54;31.71;97125.97;6162674;28;97225;-59
2023/03/07 14:14:42;;;;;;;;;19.00;18.00;;;;;12.63;31.92;97128.09;6159606;28;96539;-58
2023/03/07 14:17:59;;;;;;;;;23.60;20.00;;;;;12.75;31.68;97129.38;6166887;28;96228;-58
2023/03/07 14:21:10;;;;;;;;;21.00;20.00;;;;;12.91;31.29;97124.69;6148730;28;96291;-59
2023/03/07 14:24:42;;;;;;;;;18.67;16.67;;;;;12.83;31.61;97115.28;6149875;28;96245;-58
2023/03/07 14:28:00;;;;;;;;;18.20;17.20;;;;;13.03;31.59;97115.16;6160035;28;96500;-58